sensor_id;sensor_type;location;lat;lon;timestamp;temperature;humidity
4293;DHT22;2160;51.172;6.808;2023-03-11T05:00:59;3.40;99.90
4293;DHT22;2160;51.172;6.808;2023-03-11T05:03:27;3.50;99.90
4293;DHT22;2160;51.172;6.808;2023-03-11T05:05:54;3.50;99.90
4293;DHT22;2160;51.172;6.808;2023-03-11T05:08:22;3.60;99.90
4293;DHT22;2160;51.172;6.808;2023-03-11T05:10:50;3.60;99.90
4293;DHT22;2160;51.172;6.808;2023-03-11T05:13:19;3.90;99.90
4293;DHT22;2160;51.172;6.808;2023-03-11T05:15:46;3.80;99.90
4293;DHT22;2160;51.172;6.808;2023-03-11T05:18:16;3.70;99.90
4293;DHT22;2160;51.172;6.808;2023-03-11T05:20:43;3.80;99.90
4293;DHT22;2160;51.172;6.808;2023-03-11T05:23:12;3.80;99.90
4293;DHT22;2160;51.172;6.808;2023-03-11T05:25:39;3.80;99.90
4293;DHT22;2160;51.172;6.808;2023-03-11T05:28:07;3.70;99.90
4293;DHT22;2160;51.172;6.808;2023-03-11T05:30:39;3.40;99.90
4293;DHT22;2160;51.172;6.808;2023-03-11T05:33:07;3.50;99.90
4293;DHT22;2160;51.172;6.808;2023-03-11T05:35:36;3.70;99.90
4293;DHT22;2160;51.172;6.808;2023-03-11T05:38:03;3.60;99.90
4293;DHT22;2160;51.172;6.808;2023-03-11T05:40:30;3.60;99.90
4293;DHT22;2160;51.172;6.808;2023-03-11T05:42:57;3.70;99.90
4293;DHT22;2160;51.172;6.808;2023-03-11T05:45:26;3.80;99.90
4293;DHT22;2160;51.172;6.808;2023-03-11T05:47:55;3.80;99.90
4293;DHT22;2160;51.172;6.808;2023-03-11T05:50:22;3.70;99.90
4293;DHT22;2160;51.172;6.808;2023-03-11T05:52:51;3.70;99.90
4293;DHT22;2160;51.172;6.808;2023-03-11T05:55:19;3.80;99.90
4293;DHT22;2160;51.172;6.808;2023-03-11T05:57:50;3.90;99.90
4293;DHT22;2160;51.172;6.808;2023-03-11T06:00:17;3.80;99.90
4293;DHT22;2160;51.172;6.808;2023-03-11T06:02:49;3.70;99.90
4293;DHT22;2160;51.172;6.808;2023-03-11T06:05:17;3.60;99.90
4293;DHT22;2160;51.172;6.808;2023-03-11T06:07:47;3.80;99.90
4293;DHT22;2160;51.172;6.808;2023-03-11T06:10:15;3.80;99.90
4293;DHT22;2160;51.172;6.808;2023-03-11T06:12:42;3.70;99.90
4293;DHT22;2160;51.172;6.808;2023-03-11T06:15:18;3.80;99.90
4293;DHT22;2160;51.172;6.808;2023-03-11T06:17:45;3.90;99.90
4293;DHT22;2160;51.172;6.808;2023-03-11T06:20:12;3.60;99.90
4293;DHT22;2160;51.172;6.808;2023-03-11T06:22:40;3.60;99.90
4293;DHT22;2160;51.172;6.808;2023-03-11T06:25:08;3.60;99.90
4293;DHT22;2160;51.172;6.808;2023-03-11T06:27:38;3.90;99.90
4293;DHT22;2160;51.172;6.808;2023-03-11T06:30:07;3.60;99.90
4293;DHT22;2160;51.172;6.808;2023-03-11T06:32:42;3.90;99.90
4293;DHT22;2160;51.172;6.808;2023-03-11T06:35:10;4.00;99.90
4293;DHT22;2160;51.172;6.808;2023-03-11T06:37:38;3.90;99.90
4293;DHT22;2160;51.172;6.808;2023-03-11T06:40:06;4.00;99.90
4293;DHT22;2160;51.172;6.808;2023-03-11T06:42:34;4.10;99.90
4293;DHT22;2160;51.172;6.808;2023-03-11T06:45:04;3.90;99.90
4293;DHT22;2160;51.172;6.808;2023-03-11T06:47:31;3.90;99.90
4293;DHT22;2160;51.172;6.808;2023-03-11T06:49:59;3.90;99.90
4293;DHT22;2160;51.172;6.808;2023-03-11T06:52:31;3.90;99.90
4293;DHT22;2160;51.172;6.808;2023-03-11T06:54:58;3.80;99.90
4293;DHT22;2160;51.172;6.808;2023-03-11T06:57:26;3.90;99.90
4293;DHT22;2160;51.172;6.808;2023-03-11T06:59:56;4.00;99.90
4293;DHT22;2160;51.172;6.808;2023-03-11T07:02:25;4.00;99.90
4293;DHT22;2160;51.172;6.808;2023-03-11T07:04:52;4.10;99.90
4293;DHT22;2160;51.172;6.808;2023-03-11T07:07:19;4.00;99.90
4293;DHT22;2160;51.172;6.808;2023-03-11T07:09:46;4.10;99.90
4293;DHT22;2160;51.172;6.808;2023-03-11T07:12:13;4.40;99.90
4293;DHT22;2160;51.172;6.808;2023-03-11T07:14:41;4.30;99.90
4293;DHT22;2160;51.172;6.808;2023-03-11T07:17:08;4.30;99.90
4293;DHT22;2160;51.172;6.808;2023-03-11T07:19:46;4.40;99.90
4293;DHT22;2160;51.172;6.808;2023-03-11T07:22:13;4.40;99.90
4293;DHT22;2160;51.172;6.808;2023-03-11T07:24:40;4.20;99.90
4293;DHT22;2160;51.172;6.808;2023-03-11T07:27:07;4.30;99.90
4293;DHT22;2160;51.172;6.808;2023-03-11T07:29:34;4.20;99.90
4293;DHT22;2160;51.172;6.808;2023-03-11T07:32:01;4.20;99.90
4293;DHT22;2160;51.172;6.808;2023-03-11T07:34:28;4.00;99.90
4293;DHT22;2160;51.172;6.808;2023-03-11T07:36:56;4.20;99.90
4293;DHT22;2160;51.172;6.808;2023-03-11T07:39:23;4.00;99.90
4293;DHT22;2160;51.172;6.808;2023-03-11T07:41:50;4.10;99.90
4293;DHT22;2160;51.172;6.808;2023-03-11T07:44:17;4.40;99.90
4293;DHT22;2160;51.172;6.808;2023-03-11T07:46:44;4.20;99.90
4293;DHT22;2160;51.172;6.808;2023-03-11T07:49:11;4.20;99.90
4293;DHT22;2160;51.172;6.808;2023-03-11T07:51:39;4.10;99.90
4293;DHT22;2160;51.172;6.808;2023-03-11T07:54:11;4.10;99.90
4293;DHT22;2160;51.172;6.808;2023-03-11T07:56:38;4.30;99.90
4293;DHT22;2160;51.172;6.808;2023-03-11T07:59:05;4.40;99.90
4293;DHT22;2160;51.172;6.808;2023-03-11T08:01:32;4.40;99.90
4293;DHT22;2160;51.172;6.808;2023-03-11T08:04:02;4.50;99.90
4293;DHT22;2160;51.172;6.808;2023-03-11T08:06:32;4.30;99.90
4293;DHT22;2160;51.172;6.808;2023-03-11T08:09:01;4.40;99.90
4293;DHT22;2160;51.172;6.808;2023-03-11T08:11:30;4.60;99.90
4293;DHT22;2160;51.172;6.808;2023-03-11T08:13:58;4.70;99.90
4293;DHT22;2160;51.172;6.808;2023-03-11T08:16:25;4.70;99.90
4293;DHT22;2160;51.172;6.808;2023-03-11T08:18:53;4.90;99.90
4293;DHT22;2160;51.172;6.808;2023-03-11T08:21:22;5.10;99.90
4293;DHT22;2160;51.172;6.808;2023-03-11T08:23:49;5.30;99.90
4293;DHT22;2160;51.172;6.808;2023-03-11T08:26:17;5.20;99.90
4293;DHT22;2160;51.172;6.808;2023-03-11T08:28:46;5.40;99.90
4293;DHT22;2160;51.172;6.808;2023-03-11T08:31:15;5.60;99.90
4293;DHT22;2160;51.172;6.808;2023-03-11T08:33:42;5.50;99.90
4293;DHT22;2160;51.172;6.808;2023-03-11T08:36:09;5.40;99.90
4293;DHT22;2160;51.172;6.808;2023-03-11T08:38:37;5.10;99.90
4293;DHT22;2160;51.172;6.808;2023-03-11T08:41:04;5.00;99.90
4293;DHT22;2160;51.172;6.808;2023-03-11T08:43:31;5.10;99.90
4293;DHT22;2160;51.172;6.808;2023-03-11T08:46:00;5.00;99.90
4293;DHT22;2160;51.172;6.808;2023-03-11T08:48:28;5.20;99.90
4293;DHT22;2160;51.172;6.808;2023-03-11T08:50:55;5.30;99.90
4293;DHT22;2160;51.172;6.808;2023-03-11T08:53:22;5.40;99.90
4293;DHT22;2160;51.172;6.808;2023-03-11T08:55:49;5.50;99.90
4293;DHT22;2160;51.172;6.808;2023-03-11T08:58:16;5.30;99.90
4293;DHT22;2160;51.172;6.808;2023-03-11T09:00:43;5.40;99.90
4293;DHT22;2160;51.172;6.808;2023-03-11T09:03:12;5.60;99.90
4293;DHT22;2160;51.172;6.808;2023-03-11T09:05:39;6.00;99.90
4293;DHT22;2160;51.172;6.808;2023-03-11T09:08:06;5.70;99.90
4293;DHT22;2160;51.172;6.808;2023-03-11T09:10:33;6.10;99.90
4293;DHT22;2160;51.172;6.808;2023-03-11T09:13:00;6.20;99.90
4293;DHT22;2160;51.172;6.808;2023-03-11T09:15:27;6.30;99.90
4293;DHT22;2160;51.172;6.808;2023-03-11T09:17:54;6.40;99.90
4293;DHT22;2160;51.172;6.808;2023-03-11T09:20:22;6.50;99.90
4293;DHT22;2160;51.172;6.808;2023-03-11T09:22:49;6.40;99.90
4293;DHT22;2160;51.172;6.808;2023-03-11T09:25:16;6.40;99.90
4293;DHT22;2160;51.172;6.808;2023-03-11T09:27:43;6.20;99.90
4293;DHT22;2160;51.172;6.808;2023-03-11T09:30:11;6.30;99.90
4293;DHT22;2160;51.172;6.808;2023-03-11T09:32:38;6.30;99.90
4293;DHT22;2160;51.172;6.808;2023-03-11T09:35:05;6.20;99.90
4293;DHT22;2160;51.172;6.808;2023-03-11T09:37:34;6.20;99.90
4293;DHT22;2160;51.172;6.808;2023-03-11T09:40:01;6.20;99.90
4293;DHT22;2160;51.172;6.808;2023-03-11T09:42:32;6.50;99.90
4293;DHT22;2160;51.172;6.808;2023-03-11T09:45:09;6.60;99.90
4293;DHT22;2160;51.172;6.808;2023-03-11T09:47:39;6.80;99.90
4293;DHT22;2160;51.172;6.808;2023-03-11T09:50:21;7.00;99.90
4293;DHT22;2160;51.172;6.808;2023-03-11T09:52:57;7.40;99.40
4293;DHT22;2160;51.172;6.808;2023-03-11T09:55:36;7.30;96.30
4293;DHT22;2160;51.172;6.808;2023-03-11T09:58:12;7.30;95.30
4293;DHT22;2160;51.172;6.808;2023-03-11T10:00:41;7.10;94.70
4293;DHT22;2160;51.172;6.808;2023-03-11T10:03:16;7.10;95.10
4293;DHT22;2160;51.172;6.808;2023-03-11T10:05:45;7.10;94.00
4293;DHT22;2160;51.172;6.808;2023-03-11T10:08:18;7.20;93.30
4293;DHT22;2160;51.172;6.808;2023-03-11T10:10:52;6.90;91.60
4293;DHT22;2160;51.172;6.808;2023-03-11T10:13:25;7.00;94.40
4293;DHT22;2160;51.172;6.808;2023-03-11T10:15:58;7.10;91.70
4293;DHT22;2160;51.172;6.808;2023-03-11T10:18:38;7.10;94.80
4293;DHT22;2160;51.172;6.808;2023-03-11T10:21:13;7.20;96.50
4293;DHT22;2160;51.172;6.808;2023-03-11T10:23:54;7.10;98.10
4293;DHT22;2160;51.172;6.808;2023-03-11T10:26:28;7.20;92.40
4293;DHT22;2160;51.172;6.808;2023-03-11T10:29:00;7.00;93.10
4293;DHT22;2160;51.172;6.808;2023-03-11T10:31:32;7.00;94.40
4293;DHT22;2160;51.172;6.808;2023-03-11T10:34:03;6.80;92.40
4293;DHT22;2160;51.172;6.808;2023-03-11T10:36:37;7.10;98.50
4293;DHT22;2160;51.172;6.808;2023-03-11T10:39:09;7.50;96.10
4293;DHT22;2160;51.172;6.808;2023-03-11T10:41:42;7.60;95.20
4293;DHT22;2160;51.172;6.808;2023-03-11T10:44:14;7.70;95.00
4293;DHT22;2160;51.172;6.808;2023-03-11T10:46:43;7.60;93.10
4293;DHT22;2160;51.172;6.808;2023-03-11T10:49:13;7.40;91.50
4293;DHT22;2160;51.172;6.808;2023-03-11T10:51:42;7.00;88.40
4293;DHT22;2160;51.172;6.808;2023-03-11T10:54:22;6.90;93.80
4293;DHT22;2160;51.172;6.808;2023-03-11T10:56:54;7.20;91.40
4293;DHT22;2160;51.172;6.808;2023-03-11T10:59:25;7.10;87.10
4293;DHT22;2160;51.172;6.808;2023-03-11T11:01:56;7.10;88.50
4293;DHT22;2160;51.172;6.808;2023-03-11T11:04:30;7.40;90.30
4293;DHT22;2160;51.172;6.808;2023-03-11T11:07:19;7.90;94.50
4293;DHT22;2160;51.172;6.808;2023-03-11T11:10:15;7.90;94.50
4293;DHT22;2160;51.172;6.808;2023-03-11T11:12:54;8.10;85.10
4293;DHT22;2160;51.172;6.808;2023-03-11T11:15:23;7.80;83.50
4293;DHT22;2160;51.172;6.808;2023-03-11T11:17:51;7.80;80.10
4293;DHT22;2160;51.172;6.808;2023-03-11T11:20:21;8.10;92.00
4293;DHT22;2160;51.172;6.808;2023-03-11T11:22:52;8.30;84.00
4293;DHT22;2160;51.172;6.808;2023-03-11T11:25:29;8.40;91.20
4293;DHT22;2160;51.172;6.808;2023-03-11T11:28:00;8.20;85.30
4293;DHT22;2160;51.172;6.808;2023-03-11T11:30:28;8.40;92.60
4293;DHT22;2160;51.172;6.808;2023-03-11T11:32:55;8.50;90.50
4293;DHT22;2160;51.172;6.808;2023-03-11T11:35:23;8.00;87.00
4293;DHT22;2160;51.172;6.808;2023-03-11T11:37:52;7.80;90.70
4293;DHT22;2160;51.172;6.808;2023-03-11T11:40:27;8.20;91.80
4293;DHT22;2160;51.172;6.808;2023-03-11T11:42:58;8.40;92.00
4293;DHT22;2160;51.172;6.808;2023-03-11T11:45:31;8.40;91.40
4293;DHT22;2160;51.172;6.808;2023-03-11T11:48:05;8.70;91.00
4293;DHT22;2160;51.172;6.808;2023-03-11T11:50:36;8.90;91.00
4293;DHT22;2160;51.172;6.808;2023-03-11T11:53:14;9.00;90.50
4293;DHT22;2160;51.172;6.808;2023-03-11T11:55:47;8.80;83.60
4293;DHT22;2160;51.172;6.808;2023-03-11T11:58:14;8.80;86.90
4293;DHT22;2160;51.172;6.808;2023-03-11T12:00:49;8.80;90.70
4293;DHT22;2160;51.172;6.808;2023-03-11T12:06:28;8.70;92.60
4293;DHT22;2160;51.172;6.808;2023-03-11T12:09:08;9.00;93.10
4293;DHT22;2160;51.172;6.808;2023-03-11T12:11:45;9.00;89.40
4293;DHT22;2160;51.172;6.808;2023-03-11T12:14:19;8.50;84.00
4293;DHT22;2160;51.172;6.808;2023-03-11T12:16:51;8.10;83.00
4293;DHT22;2160;51.172;6.808;2023-03-11T12:19:33;7.90;89.80
4293;DHT22;2160;51.172;6.808;2023-03-11T12:22:26;8.00;90.70
4293;DHT22;2160;51.172;6.808;2023-03-11T12:25:12;7.60;85.50
4293;DHT22;2160;51.172;6.808;2023-03-11T12:27:52;7.50;81.30
4293;DHT22;2160;51.172;6.808;2023-03-11T12:30:25;7.70;87.40
4293;DHT22;2160;51.172;6.808;2023-03-11T12:32:56;8.20;84.40
4293;DHT22;2160;51.172;6.808;2023-03-11T12:35:26;8.20;88.80
4293;DHT22;2160;51.172;6.808;2023-03-11T12:37:56;8.40;89.60
4293;DHT22;2160;51.172;6.808;2023-03-11T12:40:49;8.70;90.00
4293;DHT22;2160;51.172;6.808;2023-03-11T12:43:58;8.60;89.00
4293;DHT22;2160;51.172;6.808;2023-03-11T12:46:12;9.00;89.50
4293;DHT22;2160;51.172;6.808;2023-03-11T12:48:43;9.40;85.80
4293;DHT22;2160;51.172;6.808;2023-03-11T12:51:39;9.50;84.80
4293;DHT22;2160;51.172;6.808;2023-03-11T12:54:27;9.30;78.50
4293;DHT22;2160;51.172;6.808;2023-03-11T12:56:56;8.90;86.70
4293;DHT22;2160;51.172;6.808;2023-03-11T12:59:49;8.80;85.90
4293;DHT22;2160;51.172;6.808;2023-03-11T13:02:33;9.00;83.90
4293;DHT22;2160;51.172;6.808;2023-03-11T13:05:12;9.20;82.70
4293;DHT22;2160;51.172;6.808;2023-03-11T13:07:45;9.40;76.30
4293;DHT22;2160;51.172;6.808;2023-03-11T13:10:19;9.60;80.20
4293;DHT22;2160;51.172;6.808;2023-03-11T13:12:48;9.70;81.40
4293;DHT22;2160;51.172;6.808;2023-03-11T13:15:28;9.70;81.10
4293;DHT22;2160;51.172;6.808;2023-03-11T13:18:01;9.90;77.80
4293;DHT22;2160;51.172;6.808;2023-03-11T13:20:43;9.90;77.40
4293;DHT22;2160;51.172;6.808;2023-03-11T13:26:34;9.60;77.30
4293;DHT22;2160;51.172;6.808;2023-03-11T13:29:21;9.30;71.90
4293;DHT22;2160;51.172;6.808;2023-03-11T13:32:06;9.50;78.00
4293;DHT22;2160;51.172;6.808;2023-03-11T13:34:44;9.50;76.30
4293;DHT22;2160;51.172;6.808;2023-03-11T13:37:25;9.10;73.80
4293;DHT22;2160;51.172;6.808;2023-03-11T13:40:04;9.00;80.50
4293;DHT22;2160;51.172;6.808;2023-03-11T13:42:42;9.10;84.10
4293;DHT22;2160;51.172;6.808;2023-03-11T13:45:19;9.10;82.10
4293;DHT22;2160;51.172;6.808;2023-03-11T13:47:49;8.70;80.60
4293;DHT22;2160;51.172;6.808;2023-03-11T13:50:21;8.80;77.40
4293;DHT22;2160;51.172;6.808;2023-03-11T13:52:51;9.10;80.80
4293;DHT22;2160;51.172;6.808;2023-03-11T13:55:22;9.20;81.90
4293;DHT22;2160;51.172;6.808;2023-03-11T13:57:52;9.30;77.30
4293;DHT22;2160;51.172;6.808;2023-03-11T14:00:21;9.30;78.50
4293;DHT22;2160;51.172;6.808;2023-03-11T14:02:52;9.30;78.40
4293;DHT22;2160;51.172;6.808;2023-03-11T14:05:22;9.40;74.80
4293;DHT22;2160;51.172;6.808;2023-03-11T14:07:50;9.40;74.80
4293;DHT22;2160;51.172;6.808;2023-03-11T14:10:26;9.40;72.90
4293;DHT22;2160;51.172;6.808;2023-03-11T14:13:14;9.40;77.30
4293;DHT22;2160;51.172;6.808;2023-03-11T14:15:46;9.00;82.10
4293;DHT22;2160;51.172;6.808;2023-03-11T14:18:25;9.00;79.30
4293;DHT22;2160;51.172;6.808;2023-03-11T14:20:53;9.10;80.90
4293;DHT22;2160;51.172;6.808;2023-03-11T14:23:27;9.10;73.60
4293;DHT22;2160;51.172;6.808;2023-03-11T14:25:59;9.00;78.10
4293;DHT22;2160;51.172;6.808;2023-03-11T14:28:28;9.20;79.60
4293;DHT22;2160;51.172;6.808;2023-03-11T14:30:58;9.10;75.30
4293;DHT22;2160;51.172;6.808;2023-03-11T14:33:27;8.80;74.90
4293;DHT22;2160;51.172;6.808;2023-03-11T14:35:56;8.80;75.60
4293;DHT22;2160;51.172;6.808;2023-03-11T14:38:25;8.60;76.70
4293;DHT22;2160;51.172;6.808;2023-03-11T14:40:55;9.20;78.10
4293;DHT22;2160;51.172;6.808;2023-03-11T14:43:22;9.50;76.70
4293;DHT22;2160;51.172;6.808;2023-03-11T14:45:50;9.80;71.40
4293;DHT22;2160;51.172;6.808;2023-03-11T14:48:22;9.90;71.80
4293;DHT22;2160;51.172;6.808;2023-03-11T14:50:53;10.10;73.40
4293;DHT22;2160;51.172;6.808;2023-03-11T14:53:23;10.40;71.80
4293;DHT22;2160;51.172;6.808;2023-03-11T14:55:54;10.80;66.30
4293;DHT22;2160;51.172;6.808;2023-03-11T14:58:27;11.10;65.90
4293;DHT22;2160;51.172;6.808;2023-03-11T15:01:01;10.90;69.20
4293;DHT22;2160;51.172;6.808;2023-03-11T15:03:30;10.70;65.00
4293;DHT22;2160;51.172;6.808;2023-03-11T15:06:02;10.50;68.70
4293;DHT22;2160;51.172;6.808;2023-03-11T15:08:33;10.10;64.90
4293;DHT22;2160;51.172;6.808;2023-03-11T15:11:19;9.60;67.80
4293;DHT22;2160;51.172;6.808;2023-03-11T15:13:47;9.50;70.80
4293;DHT22;2160;51.172;6.808;2023-03-11T15:16:27;9.40;72.40
4293;DHT22;2160;51.172;6.808;2023-03-11T15:18:54;9.60;71.40
4293;DHT22;2160;51.172;6.808;2023-03-11T15:21:23;9.70;72.80
4293;DHT22;2160;51.172;6.808;2023-03-11T15:23:51;9.80;69.50
4293;DHT22;2160;51.172;6.808;2023-03-11T15:26:21;10.10;71.50
4293;DHT22;2160;51.172;6.808;2023-03-11T15:28:53;10.50;68.30
4293;DHT22;2160;51.172;6.808;2023-03-11T15:31:29;10.80;70.40
4293;DHT22;2160;51.172;6.808;2023-03-11T15:34:20;10.80;67.80
4293;DHT22;2160;51.172;6.808;2023-03-11T15:37:19;10.80;67.70
4293;DHT22;2160;51.172;6.808;2023-03-11T15:39:48;10.50;66.30
4293;DHT22;2160;51.172;6.808;2023-03-11T15:42:21;10.50;71.80
4293;DHT22;2160;51.172;6.808;2023-03-11T15:45:03;10.30;71.90
4293;DHT22;2160;51.172;6.808;2023-03-11T15:47:34;10.40;70.20
4293;DHT22;2160;51.172;6.808;2023-03-11T15:50:19;10.40;72.10
4293;DHT22;2160;51.172;6.808;2023-03-11T15:52:49;10.20;73.90
4293;DHT22;2160;51.172;6.808;2023-03-11T15:55:16;10.00;74.00
4293;DHT22;2160;51.172;6.808;2023-03-11T15:57:45;9.90;72.70
4293;DHT22;2160;51.172;6.808;2023-03-11T16:00:18;9.90;73.00
4293;DHT22;2160;51.172;6.808;2023-03-11T16:02:47;10.10;67.50
4293;DHT22;2160;51.172;6.808;2023-03-11T16:05:16;10.10;73.40
4293;DHT22;2160;51.172;6.808;2023-03-11T16:07:43;10.10;70.90
4293;DHT22;2160;51.172;6.808;2023-03-11T16:10:14;10.20;71.30
4293;DHT22;2160;51.172;6.808;2023-03-11T16:12:41;10.40;73.10
4293;DHT22;2160;51.172;6.808;2023-03-11T16:15:19;10.40;70.20
4293;DHT22;2160;51.172;6.808;2023-03-11T16:17:49;10.00;71.10
4293;DHT22;2160;51.172;6.808;2023-03-11T16:20:17;9.60;70.30
4293;DHT22;2160;51.172;6.808;2023-03-11T16:22:44;9.50;72.30
4293;DHT22;2160;51.172;6.808;2023-03-11T16:25:19;9.40;75.70
4293;DHT22;2160;51.172;6.808;2023-03-11T16:27:47;9.40;79.50
4293;DHT22;2160;51.172;6.808;2023-03-11T16:30:15;9.70;75.30
4293;DHT22;2160;51.172;6.808;2023-03-11T16:32:42;9.40;73.30
4293;DHT22;2160;51.172;6.808;2023-03-11T16:35:09;9.30;73.50
4293;DHT22;2160;51.172;6.808;2023-03-11T16:37:37;9.60;78.80
4293;DHT22;2160;51.172;6.808;2023-03-11T16:40:05;9.40;74.30
4293;DHT22;2160;51.172;6.808;2023-03-11T16:42:33;9.40;74.20
4293;DHT22;2160;51.172;6.808;2023-03-11T16:45:00;9.40;75.30
4293;DHT22;2160;51.172;6.808;2023-03-11T16:47:27;9.60;74.10
4293;DHT22;2160;51.172;6.808;2023-03-11T16:49:54;9.60;75.60
4293;DHT22;2160;51.172;6.808;2023-03-11T16:52:21;9.70;73.60
4293;DHT22;2160;51.172;6.808;2023-03-11T16:54:48;9.70;79.80
4293;DHT22;2160;51.172;6.808;2023-03-11T16:57:15;9.80;75.70
4293;DHT22;2160;51.172;6.808;2023-03-11T16:59:44;9.70;74.30
4293;DHT22;2160;51.172;6.808;2023-03-11T17:02:11;9.40;79.30
4293;DHT22;2160;51.172;6.808;2023-03-11T17:04:38;9.30;77.30
4293;DHT22;2160;51.172;6.808;2023-03-11T17:07:06;9.00;80.60
4293;DHT22;2160;51.172;6.808;2023-03-11T17:09:34;9.20;85.00
4293;DHT22;2160;51.172;6.808;2023-03-11T17:12:01;9.20;89.00
4293;DHT22;2160;51.172;6.808;2023-03-11T17:14:28;9.30;89.70
4293;DHT22;2160;51.172;6.808;2023-03-11T17:16:58;9.20;84.60
4293;DHT22;2160;51.172;6.808;2023-03-11T17:19:25;9.20;89.30
4293;DHT22;2160;51.172;6.808;2023-03-11T17:21:52;9.10;88.40
4293;DHT22;2160;51.172;6.808;2023-03-11T17:24:19;8.90;82.30
4293;DHT22;2160;51.172;6.808;2023-03-11T17:26:46;8.80;91.50
4293;DHT22;2160;51.172;6.808;2023-03-11T17:29:13;8.90;93.50
4293;DHT22;2160;51.172;6.808;2023-03-11T17:31:40;8.90;92.50
4293;DHT22;2160;51.172;6.808;2023-03-11T17:34:08;9.00;93.70
4293;DHT22;2160;51.172;6.808;2023-03-11T17:36:35;8.80;92.10
4293;DHT22;2160;51.172;6.808;2023-03-11T17:39:02;8.90;94.10
4293;DHT22;2160;51.172;6.808;2023-03-11T17:41:29;9.00;93.60
4293;DHT22;2160;51.172;6.808;2023-03-11T17:43:56;9.00;94.10
4293;DHT22;2160;51.172;6.808;2023-03-11T17:46:23;9.00;94.70
4293;DHT22;2160;51.172;6.808;2023-03-11T17:48:50;8.90;95.20
4293;DHT22;2160;51.172;6.808;2023-03-11T17:51:20;8.80;95.20
4293;DHT22;2160;51.172;6.808;2023-03-11T17:53:48;9.00;96.40
4293;DHT22;2160;51.172;6.808;2023-03-11T17:56:17;8.80;97.10
4293;DHT22;2160;51.172;6.808;2023-03-11T17:58:45;8.70;96.60
4293;DHT22;2160;51.172;6.808;2023-03-11T18:01:13;8.70;96.60
4293;DHT22;2160;51.172;6.808;2023-03-11T18:03:41;8.60;96.60
4293;DHT22;2160;51.172;6.808;2023-03-11T18:06:09;8.60;97.10
4293;DHT22;2160;51.172;6.808;2023-03-11T18:08:37;8.40;97.00
4293;DHT22;2160;51.172;6.808;2023-03-11T18:11:06;8.40;97.10
4293;DHT22;2160;51.172;6.808;2023-03-11T18:13:34;8.40;97.70
4293;DHT22;2160;51.172;6.808;2023-03-11T18:16:04;8.30;97.90
4293;DHT22;2160;51.172;6.808;2023-03-11T18:18:32;8.20;96.20
4293;DHT22;2160;51.172;6.808;2023-03-11T18:21:00;8.20;94.60
4293;DHT22;2160;51.172;6.808;2023-03-11T18:23:28;8.10;97.10
4293;DHT22;2160;51.172;6.808;2023-03-11T18:25:59;8.10;98.20
4293;DHT22;2160;51.172;6.808;2023-03-11T18:28:27;7.90;99.70
4293;DHT22;2160;51.172;6.808;2023-03-11T18:30:55;7.80;99.90
4293;DHT22;2160;51.172;6.808;2023-03-11T18:33:25;7.60;99.90
4293;DHT22;2160;51.172;6.808;2023-03-11T18:35:55;7.50;99.90
4293;DHT22;2160;51.172;6.808;2023-03-11T18:38:22;7.40;99.90
4293;DHT22;2160;51.172;6.808;2023-03-11T18:41:02;7.40;99.90
4293;DHT22;2160;51.172;6.808;2023-03-11T18:43:29;7.30;99.90
4293;DHT22;2160;51.172;6.808;2023-03-11T18:45:59;7.30;99.90
4293;DHT22;2160;51.172;6.808;2023-03-11T18:48:26;7.20;99.90
4293;DHT22;2160;51.172;6.808;2023-03-11T18:50:54;7.30;99.90
4293;DHT22;2160;51.172;6.808;2023-03-11T18:53:22;7.00;99.90
4293;DHT22;2160;51.172;6.808;2023-03-11T18:55:50;7.00;99.90
4293;DHT22;2160;51.172;6.808;2023-03-11T18:58:22;6.90;99.90
4293;DHT22;2160;51.172;6.808;2023-03-11T19:00:50;6.90;99.90
4293;DHT22;2160;51.172;6.808;2023-03-11T19:03:17;6.80;99.90
4293;DHT22;2160;51.172;6.808;2023-03-11T19:05:45;6.70;99.90
4293;DHT22;2160;51.172;6.808;2023-03-11T19:08:13;6.70;99.90
4293;DHT22;2160;51.172;6.808;2023-03-11T19:10:40;6.60;99.90
4293;DHT22;2160;51.172;6.808;2023-03-11T19:13:08;6.80;99.90
4293;DHT22;2160;51.172;6.808;2023-03-11T19:15:47;6.90;99.90
4293;DHT22;2160;51.172;6.808;2023-03-11T19:18:15;6.70;99.90
4293;DHT22;2160;51.172;6.808;2023-03-11T19:20:42;6.50;99.90
4293;DHT22;2160;51.172;6.808;2023-03-11T19:23:09;6.50;99.90
4293;DHT22;2160;51.172;6.808;2023-03-11T19:25:37;6.40;99.90
4293;DHT22;2160;51.172;6.808;2023-03-11T19:28:04;6.30;99.90
4293;DHT22;2160;51.172;6.808;2023-03-11T19:30:31;6.20;99.90
4293;DHT22;2160;51.172;6.808;2023-03-11T19:33:00;6.40;99.90
4293;DHT22;2160;51.172;6.808;2023-03-11T19:35:27;6.10;99.90
4293;DHT22;2160;51.172;6.808;2023-03-11T19:37:54;6.00;99.90
4293;DHT22;2160;51.172;6.808;2023-03-11T19:40:23;6.00;99.90
4293;DHT22;2160;51.172;6.808;2023-03-11T19:42:54;6.20;99.90
4293;DHT22;2160;51.172;6.808;2023-03-11T19:45:21;5.90;99.90
4293;DHT22;2160;51.172;6.808;2023-03-11T19:47:49;6.00;99.90
4293;DHT22;2160;51.172;6.808;2023-03-11T19:50:18;6.00;99.90
4293;DHT22;2160;51.172;6.808;2023-03-11T19:52:45;6.00;99.90
4293;DHT22;2160;51.172;6.808;2023-03-11T19:55:12;5.90;99.90
4293;DHT22;2160;51.172;6.808;2023-03-11T19:57:39;5.80;99.90
4293;DHT22;2160;51.172;6.808;2023-03-11T20:00:07;5.90;99.90
4293;DHT22;2160;51.172;6.808;2023-03-11T20:02:35;5.80;99.90
4293;DHT22;2160;51.172;6.808;2023-03-11T20:05:02;5.80;99.90
4293;DHT22;2160;51.172;6.808;2023-03-11T20:07:30;5.80;99.90
4293;DHT22;2160;51.172;6.808;2023-03-11T20:09:59;5.80;99.90
4293;DHT22;2160;51.172;6.808;2023-03-11T20:12:26;5.80;99.90
4293;DHT22;2160;51.172;6.808;2023-03-11T20:14:52;5.80;99.90
4293;DHT22;2160;51.172;6.808;2023-03-11T20:17:19;5.70;99.90
4293;DHT22;2160;51.172;6.808;2023-03-11T20:19:46;5.70;99.90
4293;DHT22;2160;51.172;6.808;2023-03-11T20:22:13;5.80;99.90
4293;DHT22;2160;51.172;6.808;2023-03-11T20:24:42;5.80;99.90
4293;DHT22;2160;51.172;6.808;2023-03-11T20:27:09;5.70;99.90
4293;DHT22;2160;51.172;6.808;2023-03-11T20:29:36;5.70;99.90
4293;DHT22;2160;51.172;6.808;2023-03-11T20:32:03;5.70;99.90
4293;DHT22;2160;51.172;6.808;2023-03-11T20:34:30;5.80;99.90
4293;DHT22;2160;51.172;6.808;2023-03-11T20:36:57;5.90;99.90
4293;DHT22;2160;51.172;6.808;2023-03-11T20:39:24;5.90;99.90
4293;DHT22;2160;51.172;6.808;2023-03-11T20:41:53;5.90;99.90
4293;DHT22;2160;51.172;6.808;2023-03-11T20:44:19;6.00;99.90
4293;DHT22;2160;51.172;6.808;2023-03-11T20:46:46;5.90;99.90
4293;DHT22;2160;51.172;6.808;2023-03-11T20:49:14;5.80;99.90
4293;DHT22;2160;51.172;6.808;2023-03-11T20:51:41;5.80;99.90
4293;DHT22;2160;51.172;6.808;2023-03-11T20:54:12;5.80;99.90
4293;DHT22;2160;51.172;6.808;2023-03-11T20:56:40;5.80;99.90
4293;DHT22;2160;51.172;6.808;2023-03-11T20:59:08;5.80;99.90
4293;DHT22;2160;51.172;6.808;2023-03-11T21:01:37;5.90;99.90
4293;DHT22;2160;51.172;6.808;2023-03-11T21:04:04;5.80;99.90
4293;DHT22;2160;51.172;6.808;2023-03-11T21:06:33;5.80;99.90
4293;DHT22;2160;51.172;6.808;2023-03-11T21:09:03;5.80;99.90
4293;DHT22;2160;51.172;6.808;2023-03-11T21:11:30;5.70;99.90
4293;DHT22;2160;51.172;6.808;2023-03-11T21:13:57;5.70;99.90
4293;DHT22;2160;51.172;6.808;2023-03-11T21:16:26;5.80;99.90
4293;DHT22;2160;51.172;6.808;2023-03-11T21:18:53;5.70;99.90
4293;DHT22;2160;51.172;6.808;2023-03-11T21:21:20;5.70;99.90
4293;DHT22;2160;51.172;6.808;2023-03-11T21:23:48;5.70;99.90
4293;DHT22;2160;51.172;6.808;2023-03-11T21:26:16;5.70;99.90
4293;DHT22;2160;51.172;6.808;2023-03-11T21:28:43;5.70;99.90
4293;DHT22;2160;51.172;6.808;2023-03-11T21:31:13;5.80;99.90
4293;DHT22;2160;51.172;6.808;2023-03-11T21:33:42;5.80;99.90
4293;DHT22;2160;51.172;6.808;2023-03-11T21:36:10;5.80;99.90
4293;DHT22;2160;51.172;6.808;2023-03-11T21:38:37;5.80;99.90
4293;DHT22;2160;51.172;6.808;2023-03-11T21:41:07;5.80;99.90
4293;DHT22;2160;51.172;6.808;2023-03-11T21:43:34;5.70;99.90